KDRA/DRA METAR and TAF weather

Enter ICAO airport designator
Station Type Date Time Source
KDRA METAR 2022/01/15 19:53 UTC NOAA

KDRA 151953Z AUTO 11010G21KT 10SM CLR 13/M10 A3032 RMK AO2 SLP249 T01281100


Station Type Date Time Source
KDRA Decoded METAR 2022/01/15 19:53 UTC NOAA

DESERT ROCK AIRPORT, NV, United States (KDRA) 36-38N 116-02W 1006M
Jan 15, 2022 - 02:53 PM EST / 2022.01.15 1953 UTC
Wind: from the ESE (110 degrees) at 12 MPH (10 KT) gusting to 24 MPH (21 KT):0
Visibility: 10 mile(s):0
Sky conditions: clear
Temperature: 55.0 F (12.8 C)
Dew Point: 14.0 F (-10.0 C)
Relative Humidity: 19%
Pressure (altimeter): 30.32 in. Hg (1026 hPa)
ob: KDRA 151953Z AUTO 11010G21KT 10SM CLR 13/M10 A3032 RMK AO2 SLP249 T01281100
cycle: 20

Station Type Date Time Source
KDRA TAF 2011/12/07 06:36 UTC NOAA

TAF KDRA 070532Z 0706/0806 VRB04KT P6SM SKC

Example: see airport list